Anzac, Canada
Current Conditions -  °F | °C
As of 3:25 PM on Friday 24 Oct 2014 (Local Time) from CYMM Reporting Station
Overcast Overcast  
Wind Chill: 24°   Ceiling: 1900
Heat Index: 34°   Visibility: 9mi
Dew Point: 30°   Wind: 15mph
Humidity: 87%   Direction: 280°W
Pressure: 29.74"   Gusts: 25mph
Location:  56.44°N, 111.06°W
Report Text: CYMM 242125Z AUTO 28013G22KT 9SM OVC019 01/M01 A2974 RMK SLP089
Loading
Personal Weather Stations






























Interactive Weather Map
Tropical Storm Tracking
New forecast layout! Learn more

10-Day Weather Forecast

Advertisements
Track Severe Weather on mobile